Flight Track Log - Related Links

Times and Time Zones

All times are in EDT time to prevent confusion due to time zone crossing. See the N745CC flight status page for this flight to view local times or setup timezone preferences in your user account.

Time Position Orientation Groundspeed Altitude Reporting Facility
EDT Latitude Longitude Course Direction KTS MPH feet Rate Location/Type
Thu 03:16:22 PM 42.4667 -71.3333 216° Southwest 185 213 1,900  Level KA90
Thu 03:17:23 PM 42.4167 -71.3833 216° Southwest 197 227 3,000 595 Climbing KA90
Thu 03:18:23 PM 42.3833 -71.4167 216° Southwest 189 217 3,100 1,008 Climbing KA90
Thu 03:19:28 PM 42.3253 -71.4714 215° Southwest 229 264 5,100 2,400 Climbing Boston Center
Thu 03:20:28 PM 42.2653 -71.5200 211° Southwest 237 273 8,100 2,900 Climbing Boston Center
Thu 03:21:28 PM 42.2094 -71.5683 213° Southwest 248 285 10,900 2,900 Climbing Boston Center
Thu 03:22:28 PM 42.1514 -71.6167 212° Southwest 253 291 13,900 3,100 Climbing Boston Center
Thu 03:23:28 PM 42.0978 -71.6650 214° Southwest 242 278 17,100 2,750 Climbing Boston Center
Thu 03:24:28 PM 42.0519 -71.7047 213° Southwest 227 261 19,400 2,300 Climbing Boston Center
Thu 03:25:28 PM 42.0086 -71.7444 214° Southwest 221 254 21,700 2,150 Climbing Boston Center
Thu 03:26:28 PM 41.9631 -71.7839 213° Southwest 208 239 23,700 1,150 Climbing Boston Center
Thu 03:27:28 PM 41.9111 -71.8264 211° Southwest 208 239 24,000 150 Climbing Boston Center
Thu 03:28:28 PM 41.8467 -71.8772 210° Southwest 244 281 24,000  Level Boston Center
Thu 03:29:28 PM 41.7803 -71.9333 212° Southwest 272 313 24,000  Level Boston Center
Thu 03:30:28 PM 41.7117 -71.9897 212° Southwest 286 329 24,000  Level Boston Center
Thu 03:31:28 PM 41.6494 -72.0567 219° Southwest 291 335 24,000  Level Boston Center
Thu 03:32:28 PM 41.5892 -72.1236 220° Southwest 291 335 24,000  Level Boston Center
Thu 03:33:28 PM 41.5289 -72.1906 220° Southwest 291 335 24,000  Level Boston Center
Thu 03:34:28 PM 41.4667 -72.2544 218° Southwest 286 329 24,000  Level Boston Center
Thu 03:35:28 PM 41.3958 -72.3239 216° Southwest 286 329 24,000  Level Boston Center
Thu 03:36:28 PM 41.3314 -72.3819 214° Southwest 291 335 24,000  Level Boston Center
Thu 03:37:28 PM 41.2500 -72.3656 171° South 283 326 24,000  Level Boston Center
Thu 03:38:28 PM 41.1603 -72.3519 173° South 304 350 24,000  Level Boston Center
Thu 03:39:28 PM 41.0769 -72.3658 187° South 310 357 24,000 -100 Level Boston Center
Thu 03:40:28 PM 40.9978 -72.3989 197° South 310 357 23,800 -600 Descending Boston Center
Thu 03:41:28 PM 40.9228 -72.4372 201° Southwest 299 344 22,800 -1,050 Descending Boston Center
Thu 03:42:28 PM 40.8478 -72.4731 200° South 292 336 21,700 -1,050 Descending Boston Center
Thu 03:43:28 PM 40.7769 -72.5031 198° South 286 329 20,700 -1,400 Descending Boston Center
Thu 03:44:28 PM 40.6936 -72.5386 198° South 286 329 18,900 -1,476 Descending Boston Center
Thu 03:46:00 PM 40.6707 -72.6712 224° Southwest  Level Estimated
Thu 03:46:39 PM 40.5800 -72.6731 224° Southwest 274 315 16,000  Level New York Center
Thu 03:47:39 PM 40.5289 -72.7397 225° Southwest 264 304 14,400 -992 Descending New York Center
Thu 03:48:40 PM 40.4756 -72.8119 226° Southwest 257 296 14,000 -197 Descending New York Center
Thu 03:49:41 PM 40.4242 -72.8758 223° Southwest 264 304 14,000  Level New York Center
Thu 03:50:39 PM 40.3708 -72.9450 225° Southwest 264 304 14,000  Level New York Center
Thu 03:51:40 PM 40.3175 -73.0142 225° Southwest 264 304 14,000 -50 Level New York Center
Thu 03:52:40 PM 40.2706 -73.0750 225° Southwest 264 304 13,900 -550 Descending New York Center
Thu 03:53:40 PM 40.2169 -73.1439 224° Southwest 264 304 12,900 -942 Descending New York Center
Thu 03:54:41 PM 40.1678 -73.2075 225° Southwest 258 297 12,000 -454 Descending New York Center
Thu 03:55:39 PM 40.1164 -73.2708 223° Southwest 258 297 12,000  Level New York Center
Thu 03:56:40 PM 40.0692 -73.3314 224° Southwest 258 297 12,000  Level New York Center
Thu 03:57:40 PM 40.0136 -73.4025 224° Southwest 258 297 12,000 -50 Level New York Center
Thu 03:58:40 PM 39.9700 -73.4794 234° Southwest 258 297 11,900 -446 Descending New York Center
Thu 03:59:41 PM 39.9742 -73.5772 273° West 243 280 11,100 -1,613 Descending New York Center
Thu 04:00:39 PM 39.9864 -73.6725 280° West 254 292 8,700 -2,370 Descending New York Center
Thu 04:01:40 PM 39.9922 -73.7647 275° West 260 299 6,400 -1,785 Descending New York Center
Thu 04:02:40 PM 40.0108 -73.8497 286° West 254 292 5,100 -1,150 Descending New York Center
Thu 04:03:40 PM 40.0297 -73.9317 287° West 242 278 4,100 -545 Descending New York Center
Thu 04:04:41 PM 40.0483 -74.0111 287° West 249 287 4,000 -50 Descending New York Center
Thu 04:05:39 PM 40.0689 -74.0964 288° West 249 287 4,000  Level New York Center
Thu 04:06:39 PM 40.0911 -74.1894 287° West 249 287 4,000  Level New York Center
Thu 04:07:39 PM 40.1114 -74.2803 286° West 249 287 4,000  Level New York Center
Thu 04:08:40 PM 40.1300 -74.3572 288° West 249 287 4,000 -50 Level New York Center
Thu 04:09:40 PM 40.1481 -74.4450 285° West 249 287 3,900  Descending New York Center
Thu 04:10:41 PM 40.1683 -74.5303 287° West 249 287 4,000 50 Climbing New York Center
Thu 04:11:41 PM 40.1867 -74.6100 287° West 249 287 4,000  Level New York Center
Thu 04:12:39 PM 40.2011 -74.6761 286° West 226 260 4,000 -353 Level New York Center
Thu 04:13:40 PM 40.2183 -74.7233 296° West 181 208 3,300 -1,082 Descending New York Center
Thu 04:14:41 PM 40.2436 -74.7764 302° West 155 178 1,800 350 Descending New York Center
Thu 04:15:40 PM 40.2769 -74.7728 North 117 135 4,000 -650 Climbing New York Center
Thu 04:16:41 PM 40.2931 -74.7956 313° West 85 98 500 -1,785 Descending New York Center
Thu 04:17:41 PM 40.3047 -74.8153 308° West 79 91 400 1,780 Descending New York Center
Thu 04:18:39 PM 40.3186 -74.8353 312° West 79 91 4,000 3,724 Climbing New York Center

Login

Don't have an account? Register now (free) for customized features, flight alerts, and more!